Time;durP1;ratioP1;P1;durP2;ratioP2;P2;SDS_P1;SDS_P2;PMS_P1;PMS_P2;Temp;Humidity;BMP_temperature;BMP_pressure;BME280_temperature;BME280_humidity;BME280_pressure;Samples;Min_cycle;Max_cycle;Signal;HPM_P1;HPM_P2
2022/05/07 00:01:04;;;;;;;27.33;21.95;;;;;;;10.42;88.85;102217.91;5981049;24;20064;-84
2022/05/07 00:03:33;;;;;;;26.48;21.30;;;;;;;10.22;88.79;102181.69;5981023;24;20008;-84
2022/05/07 00:06:01;;;;;;;27.70;21.80;;;;;;;10.15;88.69;102175.09;5980250;23;20012;-84
2022/05/07 00:08:26;;;;;;;29.20;21.17;;;;;;;10.46;88.96;102232.38;5980951;24;20012;-84
2022/05/07 00:11:01;;;;;;;29.20;21.65;;;;;;;9.93;89.07;102155.28;5980684;24;20535;-83
2022/05/07 00:13:39;;;;;;;25.88;19.55;;;;;;;10.09;88.86;102181.31;5980758;24;20019;-84
2022/05/07 00:18:51;;;;;;;26.23;21.13;;;;;;;9.56;89.30;102096.53;6097486;23;20021;-83
2022/05/07 00:21:26;;;;;;;28.40;22.60;;;;;;;9.49;89.61;102097.66;6098298;23;20026;-83
2022/05/07 00:24:25;;;;;;;34.25;22.88;;;;;;;9.55;89.69;102101.75;6097073;23;20085;-84
2022/05/07 00:26:55;;;;;;;27.65;22.10;;;;;;;9.91;90.05;102176.88;6072007;23;20014;-84
2022/05/07 00:29:30;;;;;;;26.90;22.63;;;;;;;9.74;89.82;102155.16;6097141;23;20002;-84
2022/05/07 00:32:07;;;;;;;29.00;22.92;;;;;;;9.73;89.36;102153.47;6097026;23;20010;-85
2022/05/07 00:34:41;;;;;;;29.27;22.80;;;;;;;10.67;89.70;102312.50;6098418;23;20436;-83
2022/05/07 00:37:07;;;;;;;25.50;21.00;;;;;;;10.62;90.04;102313.53;6098498;23;20053;-85
2022/05/07 00:39:40;;;;;;;29.15;22.30;;;;;;;10.41;90.15;102279.91;6112224;23;20093;-85
2022/05/07 00:42:07;;;;;;;27.83;23.20;;;;;;;10.36;90.62;102272.38;6128622;23;20001;-84
2022/05/07 00:44:39;;;;;;;27.13;22.25;;;;;;;9.59;90.53;102149.72;6100813;23;20148;-83
2022/05/07 00:47:23;;;;;;;;;;;;;;;10.62;88.91;102304.94;6127622;23;20009;-83
2022/05/07 00:51:33;;;;;;;31.70;23.98;;;;;;;10.48;90.87;102300.28;6126172;23;19913;-83
2022/05/07 00:52:51;;;;;;;28.67;23.08;;;;;;;10.25;91.18;102259.03;6123940;23;20014;-83
2022/05/07 00:55:19;;;;;;;29.60;23.42;;;;;;;9.43;91.58;102123.66;6126040;23;20066;-85
2022/05/07 00:57:45;;;;;;;28.17;22.95;;;;;;;9.76;91.46;102175.72;6126142;23;20080;-83
2022/05/07 01:00:22;;;;;;;27.83;23.60;;;;;;;10.07;91.51;102227.00;6125875;23;20029;-83
2022/05/07 01:02:48;;;;;;;28.23;22.35;;;;;;;9.53;91.27;102140.47;6126642;23;20002;-83
2022/05/07 01:05:13;;;;;;;27.88;23.30;;;;;;;10.53;91.19;102302.72;6099743;23;20006;-83
2022/05/07 01:07:39;;;;;;;25.65;22.42;;;;;;;9.27;91.18;102092.47;6125687;23;20037;-83
2022/05/07 01:10:08;;;;;;;28.40;24.30;;;;;;;9.18;91.49;102070.47;6125971;23;20002;-83
2022/05/07 01:12:41;;;;;;;30.38;24.10;;;;;;;10.54;91.54;102301.81;6126466;23;20006;-83
2022/05/07 01:15:21;;;;;;;28.60;22.88;;;;;;;9.70;91.39;102168.22;6125910;23;20001;-82
2022/05/07 01:17:47;;;;;;;29.43;23.60;;;;;;;10.45;91.52;102279.75;6126134;23;20022;-82
2022/05/07 01:20:14;;;;;;;30.75;23.30;;;;;;;9.52;91.48;102128.47;6125786;23;20006;-82
2022/05/07 01:22:40;;;;;;;27.70;23.27;;;;;;;10.36;91.77;102268.94;6125628;23;20006;-81
2022/05/07 01:25:08;;;;;;;28.02;23.08;;;;;;;10.32;92.28;102260.47;6126016;23;19999;-82
2022/05/07 01:27:43;;;;;;;28.48;23.48;;;;;;;10.15;92.21;102242.19;6126119;23;20006;-83
2022/05/07 01:30:10;;;;;;;30.45;24.90;;;;;;;9.45;92.36;102129.63;6125850;23;20012;-83
2022/05/07 01:32:39;;;;;;;29.88;24.13;;;;;;;9.58;92.58;102155.78;6127251;23;20009;-82
2022/05/07 01:35:13;;;;;;;28.55;24.33;;;;;;;9.48;92.70;102143.22;6127733;23;20002;-83
2022/05/07 01:37:38;;;;;;;27.75;23.98;;;;;;;9.32;92.88;102111.16;6127668;23;20038;-82
2022/05/07 01:40:04;;;;;;;29.25;24.35;;;;;;;9.84;92.66;102202.06;6127840;23;20404;-82
2022/05/07 01:42:29;;;;;;;30.85;23.80;;;;;;;9.69;92.76;102185.41;6127879;23;20306;-82
2022/05/07 01:44:55;;;;;;;27.60;23.17;;;;;;;10.14;92.50;102258.59;6128287;23;20037;-82
2022/05/07 01:50:05;;;;;;;29.65;24.67;;;;;;;9.08;93.01;102088.88;6127502;23;20020;-82
2022/05/07 01:52:30;;;;;;;31.23;25.20;;;;;;;9.06;92.70;102090.69;6101586;23;20010;-83
2022/05/07 01:54:55;;;;;;;33.10;25.23;;;;;;;8.75;93.01;102036.84;6127776;23;20408;-82
2022/05/07 01:57:20;;;;;;;29.45;24.83;;;;;;;9.16;93.18;102103.19;6127654;23;20006;-82
2022/05/07 01:59:46;;;;;;;31.20;23.35;;;;;;;10.15;93.49;102274.00;6127714;23;20340;-82
2022/05/07 02:02:11;;;;;;;28.75;25.15;;;;;;;10.19;93.49;102272.97;6127464;23;20010;-82
2022/05/07 02:04:36;;;;;;;29.42;23.98;;;;;;;9.76;93.67;102202.34;6128428;23;20021;-81
2022/05/07 02:07:02;;;;;;;29.23;23.77;;;;;;;9.91;93.55;102226.72;6127648;23;20016;-82
2022/05/07 02:09:36;;;;;;;32.10;25.08;;;;;;;9.16;93.60;102104.91;6127414;23;20084;-82
2022/05/07 02:12:03;;;;;;;31.33;25.40;;;;;;;9.30;93.96;102130.19;6127985;23;20022;-83
2022/05/07 02:14:29;;;;;;;30.23;25.02;;;;;;;9.48;93.84;102153.53;6127508;23;20009;-83
2022/05/07 02:16:55;;;;;;;31.40;24.25;;;;;;;9.93;94.17;102224.94;6127515;23;20025;-82
2022/05/07 02:19:32;;;;;;;30.27;23.80;;;;;;;8.83;93.86;102040.81;6127406;23;20010;-83
2022/05/07 02:21:57;;;;;;;29.90;23.88;;;;;;;9.51;93.72;102154.31;6127635;23;20002;-83
2022/05/07 02:24:23;;;;;;;34.42;24.98;;;;;;;9.56;94.04;102155.84;6127636;23;20065;-82
2022/05/07 02:26:48;;;;;;;29.30;23.30;;;;;;;10.03;93.75;102233.19;6127672;23;20006;-82
2022/05/07 02:29:23;;;;;;;33.45;25.15;;;;;;;9.43;94.21;102126.22;6127295;23;20010;-83
2022/05/07 02:34:40;;;;;;;32.88;25.35;;;;;;;9.48;94.07;102144.97;6127434;23;20012;-83
2022/05/07 02:37:14;;;;;;;31.95;25.67;;;;;;;8.77;94.01;102025.59;6127118;23;20455;-83
2022/05/07 02:39:39;;;;;;;35.05;26.50;;;;;;;9.41;94.29;102128.88;6126752;23;20028;-82
2022/05/07 02:44:41;;;;;;;34.42;25.92;;;;;;;8.68;94.17;102007.06;6156247;23;20029;-83
2022/05/07 02:47:10;;;;;;;35.63;26.88;;;;;;;8.83;94.12;102030.50;6156368;23;20447;-83
2022/05/07 02:49:44;;;;;;;34.00;26.77;;;;;;;8.82;94.51;102020.28;6156501;23;20001;-82
2022/05/07 02:52:15;;;;;;;32.75;26.50;;;;;;;8.79;94.38;102016.09;6157153;23;20443;-82
2022/05/07 02:54:53;;;;;;;31.23;25.60;;;;;;;9.64;94.42;102152.97;6156075;23;20100;-82
2022/05/07 02:57:18;;;;;;;33.55;26.27;;;;;;;9.55;94.41;102143.00;6156708;23;20072;-81
2022/05/07 02:59:44;;;;;;;33.00;26.02;;;;;;;9.11;94.48;102068.16;6156647;23;20029;-82
2022/05/07 03:02:10;;;;;;;35.97;26.85;;;;;;;8.99;94.56;102051.41;6156670;23;20012;-82
2022/05/07 03:04:35;;;;;;;32.83;26.08;;;;;;;9.35;94.64;102105.91;6156511;23;20014;-82
2022/05/07 03:07:01;;;;;;;31.20;25.25;;;;;;;9.08;94.58;102069.13;6156669;23;20440;-81
2022/05/07 03:09:26;;;;;;;34.20;26.25;;;;;;;9.00;94.72;102058.25;6156166;23;20002;-82
2022/05/07 03:11:51;;;;;;;34.65;26.42;;;;;;;10.17;94.93;102241.22;6156530;23;20463;-82
2022/05/07 03:14:17;;;;;;;33.20;25.77;;;;;;;9.54;94.69;102141.31;6156473;23;20012;-82
2022/05/07 03:16:42;;;;;;;31.45;25.15;;;;;;;9.89;95.04;102194.16;6129632;23;20331;-83
2022/05/07 03:19:08;;;;;;;31.63;25.67;;;;;;;10.18;95.15;102247.22;6156451;23;20335;-81
2022/05/07 03:21:34;;;;;;;30.10;24.70;;;;;;;9.68;95.12;102176.00;6156308;23;20309;-81
2022/05/07 03:23:59;;;;;;;30.38;24.80;;;;;;;10.06;95.24;102231.31;6156059;23;20008;-81
2022/05/07 03:26:24;;;;;;;29.85;25.00;;;;;;;9.06;95.39;102072.66;6156409;23;20527;-82
2022/05/07 03:28:50;;;;;;;32.08;24.95;;;;;;;10.10;95.38;102251.84;6156534;23;20013;-81
2022/05/07 03:31:18;;;;;;;29.70;24.20;;;;;;;10.09;95.54;102243.25;6156510;23;20085;-82
2022/05/07 03:33:44;;;;;;;30.85;25.35;;;;;;;10.06;95.40;102249.38;6156492;23;20006;-82
2022/05/07 03:36:09;;;;;;;33.47;25.67;;;;;;;9.62;95.38;102172.81;6156351;23;20012;-82
2022/05/07 03:38:34;;;;;;;30.42;25.40;;;;;;;9.70;95.58;102192.25;6130484;23;20503;-82
2022/05/07 03:41:01;;;;;;;30.30;25.17;;;;;;;9.03;95.44;102083.06;6129439;23;20085;-83
2022/05/07 03:43:29;;;;;;;31.83;25.60;;;;;;;10.04;95.63;102250.34;6156430;23;20063;-82
2022/05/07 03:46:04;;;;;;;34.05;25.92;;;;;;;10.02;95.68;102252.97;6155561;23;20001;-82
2022/05/07 03:48:40;;;;;;;31.08;26.13;;;;;;;8.69;95.70;102032.75;6155841;23;20012;-83
2022/05/07 03:51:15;;;;;;;31.08;25.27;;;;;;;9.00;95.67;102096.06;6155742;23;20006;-83
2022/05/07 03:53:43;;;;;;;30.00;24.25;;;;;;;8.52;95.49;102007.59;6155421;23;20009;-82
2022/05/07 03:56:08;;;;;;;32.03;26.10;;;;;;;8.65;95.65;102032.91;6155127;23;20028;-82
2022/05/07 03:58:35;;;;;;;31.45;25.58;;;;;;;10.00;95.96;102254.75;6156051;23;20037;-82
2022/05/07 04:06:58;;;;;;;;;;;;;;;10.11;94.57;102256.94;6156481;23;20025;-81
2022/05/07 04:09:24;;;;;;;32.20;25.05;;;;;;;10.00;95.68;102241.88;6155458;23;20255;-82
2022/05/07 04:11:50;;;;;;;30.08;24.88;;;;;;;9.53;96.04;102158.50;6156157;23;20048;-83
2022/05/07 04:14:16;;;;;;;29.50;25.15;;;;;;;9.33;95.96;102138.63;6129817;23;20092;-83
2022/05/07 04:16:41;;;;;;;30.33;25.15;;;;;;;9.08;96.25;102084.56;6156090;23;20005;-83
2022/05/07 04:19:06;;;;;;;32.70;25.83;;;;;;;9.27;95.98;102115.66;6156025;23;19998;-83
2022/05/07 04:21:34;;;;;;;28.98;24.85;;;;;;;9.93;96.01;102219.78;6156141;23;20005;-82
2022/05/07 04:24:08;;;;;;;34.55;26.38;;;;;;;10.17;96.44;102255.88;6155841;23;20001;-83
2022/05/07 04:26:33;;;;;;;31.58;26.13;;;;;;;10.06;95.91;102238.22;6155684;23;20001;-82
2022/05/07 04:28:59;;;;;;;30.70;25.25;;;;;;;9.67;95.94;102179.50;6155837;23;20024;-82
2022/05/07 04:31:25;;;;;;;32.03;25.95;;;;;;;9.35;95.84;102121.38;6155804;23;20005;-83
2022/05/07 04:33:50;;;;;;;32.15;26.15;;;;;;;10.30;95.89;102270.00;6156191;23;20072;-83
2022/05/07 04:36:15;;;;;;;33.47;26.42;;;;;;;10.15;95.89;102244.78;6156090;23;20331;-83
2022/05/07 04:38:41;;;;;;;31.05;26.40;;;;;;;9.99;95.99;102213.53;6155690;23;20069;-83
2022/05/07 04:41:07;;;;;;;32.40;26.63;;;;;;;9.32;96.06;102089.72;6129225;23;20013;-83
2022/05/07 04:43:45;;;;;;;30.83;24.77;;;;;;;9.15;95.93;102065.44;6155746;23;20012;-82
2022/05/07 04:46:11;;;;;;;29.88;24.63;;;;;;;10.29;96.00;102239.94;6155674;23;20080;-84
2022/05/07 04:48:36;;;;;;;29.92;25.25;;;;;;;10.56;95.97;102276.75;6156297;23;20084;-84
2022/05/07 04:51:04;;;;;;;31.52;26.17;;;;;;;10.20;95.96;102220.44;6156194;23;20035;-84
2022/05/07 04:53:30;;;;;;;32.53;27.02;;;;;;;10.71;95.75;102280.44;6156787;23;20009;-83
2022/05/07 04:55:55;;;;;;;32.60;26.00;;;;;;;10.79;95.50;102276.66;6156525;23;20001;-84
2022/05/07 04:58:21;;;;;;;32.00;26.70;;;;;;;10.75;95.12;102264.78;6155613;23;20002;-84
2022/05/07 05:00:46;;;;;;;31.33;25.08;;;;;;;10.62;94.97;102235.19;6155665;23;20009;-84
2022/05/07 05:03:13;;;;;;;32.60;26.33;;;;;;;9.86;94.82;102102.22;6155839;23;20048;-84
2022/05/07 05:05:39;;;;;;;30.48;26.17;;;;;;;10.51;95.12;102204.59;6155284;23;20020;-84
2022/05/07 05:08:04;;;;;;;31.73;26.35;;;;;;;10.25;94.65;102156.63;6129505;23;20009;-83
2022/05/07 05:10:33;;;;;;;32.35;26.38;;;;;;;9.77;94.04;102056.16;6155398;23;20405;-84
2022/05/07 05:12:58;;;;;;;30.75;26.17;;;;;;;10.23;94.48;102122.28;6155836;23;20005;-85
2022/05/07 05:15:30;;;;;;;32.88;26.45;;;;;;;10.11;94.27;102085.75;6155478;23;20016;-84
2022/05/07 05:17:55;;;;;;;32.17;25.98;;;;;;;10.48;93.96;102132.41;6155723;23;20002;-83
2022/05/07 05:20:20;;;;;;;31.25;26.38;;;;;;;11.58;93.82;102293.13;6155609;23;20003;-84
2022/05/07 05:22:49;;;;;;;31.77;27.08;;;;;;;11.72;93.22;102298.56;6123625;23;20021;-83
2022/05/07 05:25:15;;;;;;;32.72;27.70;;;;;;;11.87;93.11;102309.16;6123992;23;20012;-83
2022/05/07 05:27:41;;;;;;;34.30;27.02;;;;;;;11.88;93.04;102275.44;6123414;23;20324;-82
2022/05/07 05:30:07;;;;;;;32.25;27.08;;;;;;;12.05;91.67;102264.31;6123398;23;20010;-83
2022/05/07 05:32:35;;;;;;;35.03;26.50;;;;;;;11.55;86.96;102151.00;6094773;23;20440;-83
2022/05/07 05:35:02;;;;;;;33.55;26.10;;;;;;;11.66;83.66;102138.38;6125600;23;20029;-83
2022/05/07 05:37:32;;;;;;;32.60;25.40;;;;;;;12.19;83.28;102170.44;6125585;23;20005;-80
2022/05/07 05:40:00;;;;;;;30.58;25.50;;;;;;;13.32;81.66;102307.44;6126238;23;20492;-82
2022/05/07 05:42:29;;;;;;;30.90;24.23;;;;;;;13.11;77.71;102208.16;6099826;23;20061;-82
2022/05/07 05:45:04;;;;;;;28.25;22.55;;;;;;;13.21;77.51;102193.84;6125918;23;20069;-83
2022/05/07 05:47:36;;;;;;;31.40;24.38;;;;;;;12.90;75.27;102102.06;6099385;23;20365;-83
2022/05/07 05:50:01;;;;;;;29.27;23.42;;;;;;;13.57;73.90;102172.88;6100126;23;20013;-83
2022/05/07 05:52:27;;;;;;;29.77;22.67;;;;;;;13.64;71.94;102170.78;6126037;23;20005;-83
2022/05/07 05:54:53;;;;;;;31.40;22.85;;;;;;;14.02;71.74;102233.59;6126104;23;20010;-83
2022/05/07 05:57:27;;;;;;;27.25;20.60;;;;;;;13.26;72.13;102114.00;6125553;23;20131;-83
2022/05/07 05:59:53;;;;;;;31.05;22.02;;;;;;;14.27;72.98;102290.25;6125831;23;20017;-83
2022/05/07 06:02:24;;;;;;;28.55;21.75;;;;;;;13.46;73.86;102152.69;6125493;23;20006;-83
2022/05/07 06:04:56;;;;;;;;;;;;;;;14.70;74.92;102317.31;6101200;23;20428;-85
2022/05/07 06:07:34;;;;;;;26.23;20.35;;;;;;;13.63;73.43;102128.41;6126551;23;19909;-83
2022/05/07 06:10:04;;;;;;;28.05;20.25;;;;;;;14.22;70.58;102163.19;6125696;23;20375;-84
2022/05/07 06:12:34;;;;;;;27.93;20.20;;;;;;;15.55;68.12;102298.44;6124991;23;20115;-82
2022/05/07 06:14:59;;;;;;;27.70;20.02;;;;;;;15.42;65.62;102168.16;6125863;23;20323;-83
2022/05/07 06:17:33;;;;;;;28.33;20.27;;;;;;;15.78;65.41;102110.38;6126059;23;20013;-82
2022/05/07 06:20:04;;;;;;;29.63;20.17;;;;;;;16.50;62.42;102120.41;6127686;23;20012;-80
2022/05/07 06:22:47;;;;;;;27.60;18.30;;;;;;;18.60;61.81;102325.06;6127236;23;20005;-80
2022/05/07 06:28:13;;;;;;;29.92;19.00;;;;;;;18.58;57.54;102156.88;6127417;23;20336;-81
2022/05/07 06:30:54;;;;;;;24.65;18.25;;;;;;;19.15;54.24;102135.03;6127531;23;20005;-82
2022/05/07 06:33:20;;;;;;;24.20;16.98;;;;;;;20.63;52.65;102321.59;6127057;23;20068;-82
2022/05/07 06:35:52;;;;;;;21.88;17.40;;;;;;;19.99;51.86;102172.88;6127240;23;20029;-81
2022/05/07 06:38:17;;;;;;;25.15;17.23;;;;;;;19.94;50.60;102193.38;6126964;23;20340;-82
2022/05/07 06:40:43;;;;;;;27.20;17.70;;;;;;;20.38;50.34;102228.28;6127217;23;20009;-82
2022/05/07 06:43:08;;;;;;;24.02;17.35;;;;;;;20.92;49.68;102277.16;6126888;23;20089;-82
2022/05/07 06:45:51;;;;;;;23.10;16.33;;;;;;;21.64;48.21;102305.25;6127285;23;20420;-81
2022/05/07 06:48:26;;;;;;;25.05;16.45;;;;;;;21.22;48.41;102202.81;6127059;23;20117;-82
2022/05/07 06:50:53;;;;;;;22.33;16.23;;;;;;;20.93;47.37;102165.91;6126994;23;20032;-82
2022/05/07 06:53:18;;;;;;;21.98;16.85;;;;;;;21.34;46.77;102204.44;6126978;23;20006;-82
2022/05/07 06:58:30;;;;;;;21.95;16.33;;;;;;;21.21;46.06;102159.09;6126595;23;20021;-81
2022/05/07 07:00:57;;;;;;;23.25;17.42;;;;;;;22.41;46.18;102329.09;6126912;23;20438;-81
2022/05/07 07:03:23;;;;;;;24.00;16.35;;;;;;;22.47;45.75;102291.69;6127150;23;20006;-82
2022/05/07 07:08:42;;;;;;;23.52;16.38;;;;;;;20.97;45.66;102129.72;6127194;23;20016;-82
2022/05/07 07:11:16;;;;;;;22.90;16.58;;;;;;;20.92;47.29;102156.38;6126830;23;20068;-81
2022/05/07 07:13:55;;;;;;;23.85;15.27;;;;;;;21.90;47.53;102301.16;6126670;23;20432;-80
2022/05/07 07:16:20;;;;;;;30.00;16.77;;;;;;;21.48;46.27;102227.69;6127008;23;19998;-78
2022/05/07 07:18:46;;;;;;;24.38;16.23;;;;;;;21.59;46.03;102232.00;6126967;23;20048;-81
2022/05/07 07:21:12;;;;;;;23.05;16.30;;;;;;;22.43;45.44;102326.34;6126803;23;20329;-82
2022/05/07 07:23:37;;;;;;;25.67;16.75;;;;;;;21.48;46.58;102211.09;6126748;23;20056;-81
2022/05/07 07:26:13;;;;;;;24.52;16.98;;;;;;;21.22;47.96;102208.06;6100415;23;20427;-81
2022/05/07 07:28:39;;;;;;;26.00;17.25;;;;;;;20.73;49.33;102204.34;6126250;23;20008;-82
2022/05/07 07:31:10;;;;;;;25.17;17.30;;;;;;;20.42;49.34;102192.94;6126619;23;20033;-81
2022/05/07 07:33:38;;;;;;;25.48;17.40;;;;;;;20.45;48.96;102263.59;6126232;23;20018;-81
2022/05/07 07:36:06;;;;;;;26.33;17.13;;;;;;;19.80;50.76;102184.97;6126173;23;20042;-81
2022/05/07 07:38:31;;;;;;;21.90;15.30;;;;;;;19.92;51.07;102220.69;6125342;23;19998;-82
2022/05/07 07:41:09;;;;;;;23.17;15.75;;;;;;;19.32;50.83;102133.72;6093015;23;20020;-82
2022/05/07 07:43:35;;;;;;;20.52;14.43;;;;;;;19.39;50.71;102162.88;6093497;23;20042;-82
2022/05/07 07:48:47;;;;;;;21.33;15.70;;;;;;;19.57;50.29;102199.94;6093537;23;20467;-82
2022/05/07 07:51:12;;;;;;;24.70;15.35;;;;;;;19.64;49.02;102235.16;6093094;23;20014;-83
2022/05/07 07:53:38;;;;;;;22.08;14.93;;;;;;;19.45;49.53;102217.41;6093116;23;20556;-83
2022/05/07 07:56:10;;;;;;;24.83;16.38;;;;;;;19.21;50.93;102193.97;6094129;23;20014;-84
2022/05/07 07:58:47;;;;;;;;;;;;;;;20.24;50.38;102321.22;6095344;23;20369;-84
2022/05/07 08:01:28;;;;;;;22.33;15.98;;;;;;;19.53;51.90;102211.56;6093558;23;20346;-83
2022/05/07 08:03:59;;;;;;;24.98;15.95;;;;;;;20.33;52.64;102325.72;6095242;23;20341;-82
2022/05/07 08:06:30;;;;;;;;;;;;;;;20.51;50.89;102323.44;6095748;23;20006;-82
2022/05/07 08:11:56;;;;;;;24.27;16.77;;;;;;;18.80;50.91;102129.94;6095048;23;19981;-82
2022/05/07 08:14:24;;;;;;;28.45;16.25;;;;;;;19.08;51.23;102208.97;6094408;23;20417;-83
2022/05/07 08:16:55;;;;;;;25.05;16.58;;;;;;;18.42;52.90;102129.38;6094675;23;20007;-82
2022/05/07 08:19:39;;;;;;;;;;;;;;;19.83;53.34;102327.13;6123678;23;20010;-82
2022/05/07 08:22:05;;;;;;;25.60;16.63;;;;;;;18.48;53.03;102137.56;6100743;23;20238;-82
2022/05/07 08:24:39;;;;;;;24.90;17.05;;;;;;;18.54;52.75;102131.06;6065216;23;20089;-82
2022/05/07 08:27:06;;;;;;;26.90;17.38;;;;;;;19.68;54.10;102321.31;6066093;23;20018;-83
2022/05/07 08:29:34;;;;;;;26.75;18.52;;;;;;;19.35;51.86;102295.88;6065892;23;20014;-82
2022/05/07 08:31:59;;;;;;;26.55;18.27;;;;;;;18.44;53.28;102136.16;6065319;23;20054;-82
2022/05/07 08:34:41;;;;;;;26.25;19.02;;;;;;;18.36;52.28;102143.75;6036952;23;20107;-83
2022/05/07 08:37:07;;;;;;;26.83;17.42;;;;;;;18.50;51.56;102192.41;6013199;23;20460;-80
2022/05/07 08:39:41;;;;;;;24.13;16.27;;;;;;;18.52;51.60;102193.97;6037157;23;20015;-81
2022/05/07 08:42:13;;;;;;;27.58;16.98;;;;;;;18.43;52.45;102173.72;6036900;23;20014;-82
2022/05/07 08:44:38;;;;;;;23.60;16.50;;;;;;;19.65;51.77;102339.03;6013192;23;20326;-82
2022/05/07 08:47:04;;;;;;;26.48;15.65;;;;;;;19.67;51.30;102332.75;6013079;23;20050;-80
2022/05/07 08:49:29;;;;;;;24.63;15.82;;;;;;;19.92;50.79;102333.44;6038431;23;20062;-83
2022/05/07 08:51:55;;;;;;;23.38;16.80;;;;;;;19.96;51.04;102322.59;6038516;23;20007;-82
2022/05/07 08:54:20;;;;;;;22.13;15.52;;;;;;;19.96;49.27;102306.00;6014492;23;20434;-80
2022/05/07 08:56:46;;;;;;;22.98;16.40;;;;;;;20.28;51.50;102322.66;6097337;23;20053;-82
2022/05/07 08:59:11;;;;;;;25.08;17.67;;;;;;;19.94;49.43;102265.97;6098748;23;20003;-83
2022/05/07 09:01:36;;;;;;;24.45;15.85;;;;;;;20.08;50.16;102306.84;6098567;23;20034;-84
2022/05/07 09:04:11;;;;;;;23.55;16.67;;;;;;;19.97;50.55;102336.53;6099208;23;20448;-83
2022/05/07 09:06:37;;;;;;;22.23;15.95;;;;;;;19.71;51.76;102328.91;6098735;23;20033;-83
2022/05/07 09:09:07;;;;;;;22.58;15.27;;;;;;;19.56;51.90;102335.34;6097682;23;20002;-83
2022/05/07 09:11:44;;;;;;;21.77;13.73;;;;;;;19.30;51.55;102337.31;6097032;23;20014;-82
2022/05/07 09:14:14;;;;;;;22.98;12.70;;;;;;;19.14;50.93;102340.25;6049104;23;20002;-81
2022/05/07 09:16:42;;;;;;;19.55;12.98;;;;;;;19.02;52.31;102327.25;6070926;23;20006;-77
2022/05/07 09:19:21;;;;;;;22.80;13.50;;;;;;;19.06;52.78;102333.91;6070847;23;20017;-80
2022/05/07 09:21:50;;;;;;;21.75;14.43;;;;;;;19.04;52.80;102333.19;6096798;23;20006;-83
2022/05/07 09:24:17;;;;;;;21.48;13.93;;;;;;;18.90;52.89;102314.13;6097052;23;20058;-81
2022/05/07 09:26:44;;;;;;;19.38;12.70;;;;;;;18.88;52.52;102296.88;6070650;23;20006;-83
2022/05/07 09:29:11;;;;;;;20.13;12.98;;;;;;;19.14;51.46;102327.16;6071340;23;20037;-82
2022/05/07 09:31:46;;;;;;;20.65;13.50;;;;;;;18.29;51.02;102193.06;6096426;23;20074;-83
2022/05/07 09:37:01;;;;;;;22.25;12.90;;;;;;;18.30;51.02;102181.66;6126195;23;20069;-82
2022/05/07 09:39:33;;;;;;;19.42;13.10;;;;;;;18.27;52.37;102160.94;6126045;23;20031;-83
2022/05/07 09:42:01;;;;;;;17.88;12.13;;;;;;;19.45;53.41;102332.69;6125926;23;20002;-84
2022/05/07 09:44:33;;;;;;;19.92;11.98;;;;;;;19.52;52.90;102333.03;6125922;23;20006;-84
2022/05/07 09:46:59;;;;;;;21.40;12.82;;;;;;;18.89;50.62;102233.09;6099881;23;20430;-84
2022/05/07 09:49:27;;;;;;;19.20;11.55;;;;;;;18.48;51.56;102175.97;6148070;23;20022;-82
2022/05/07 09:51:54;;;;;;;21.65;12.45;;;;;;;19.38;51.09;102321.03;6155489;23;20002;-84
2022/05/07 09:59:51;;;;;;;24.73;14.30;;;;;;;18.68;52.14;102185.84;6157553;23;20458;-84
2022/05/07 10:03:12;;;;;;;19.90;13.95;;;;;;;19.65;51.56;102329.38;6130219;23;20005;-83
2022/05/07 10:05:58;;;;;;;23.52;13.93;;;;;;;19.76;51.62;102328.53;6157371;23;20013;-82
2022/05/07 10:08:48;;;;;;;20.45;14.55;;;;;;;19.74;51.48;102322.59;6157133;23;20001;-81
2022/05/07 10:14:27;;;;;;;19.52;12.95;;;;;;;19.67;52.45;102314.41;6040967;23;20011;-82
2022/05/07 10:17:19;;;;;;;19.88;13.07;;;;;;;18.68;49.88;102143.97;6038524;23;20007;-83
2022/05/07 10:23:51;;;;;;;22.35;13.02;;;;;;;19.98;51.39;102309.34;6038482;23;20529;-83
2022/05/07 10:26:45;;;;;;;21.38;13.00;;;;;;;19.20;50.09;102198.38;6037023;23;20107;-82
2022/05/07 10:29:26;;;;;;;17.95;11.43;;;;;;;18.68;51.12;102115.19;6038208;23;20022;-83
2022/05/07 10:32:03;;;;;;;21.98;12.60;;;;;;;19.98;52.43;102319.84;6038469;23;20122;-83
2022/05/07 10:34:49;;;;;;;18.80;10.82;;;;;;;19.56;50.69;102240.16;6037921;23;20007;-83
2022/05/07 10:37:26;;;;;;;15.90;10.55;;;;;;;18.96;51.18;102126.94;6038302;23;20039;-83
2022/05/07 10:39:52;;;;;;;19.70;12.32;;;;;;;19.51;48.80;102222.16;6038644;23;20011;-84
2022/05/07 10:45:20;;;;;;;24.52;14.63;;;;;;;20.10;50.60;102313.63;6038466;23;20094;-83
2022/05/07 10:47:55;;;;;;;21.67;13.23;;;;;;;20.20;50.22;102306.69;6038222;23;20014;-83
2022/05/07 10:50:37;;;;;;;19.63;11.68;;;;;;;20.24;51.49;102299.38;6066465;23;20021;-83
2022/05/07 10:53:03;;;;;;;20.38;13.02;;;;;;;19.48;50.44;102149.88;6127760;23;20324;-85
2022/05/07 10:55:29;;;;;;;19.33;12.70;;;;;;;20.20;50.14;102212.25;6127533;23;20010;-83
2022/05/07 10:57:56;;;;;;;22.02;13.45;;;;;;;20.42;49.82;102210.47;6126507;23;20009;-84
2022/05/07 11:05:39;;;;;;;17.77;12.73;;;;;;;21.23;49.10;102279.81;6154809;23;20036;-80
2022/05/07 11:08:04;;;;;;;19.83;12.82;;;;;;;20.98;49.45;102220.69;6157153;23;20020;-79
2022/05/07 11:10:41;;;;;;;21.92;14.10;;;;;;;21.51;49.22;102302.81;6130760;23;20017;-80
2022/05/07 11:13:08;;;;;;;19.25;13.18;;;;;;;21.40;47.89;102287.13;6105369;23;20009;-80
2022/05/07 11:15:42;;;;;;;19.63;13.43;;;;;;;20.56;48.39;102132.31;6157091;23;20005;-80
2022/05/07 11:18:15;;;;;;;20.27;12.25;;;;;;;21.36;46.99;102249.78;6130537;23;20005;-79
2022/05/07 11:20:41;;;;;;;21.63;14.00;;;;;;;21.18;46.81;102225.06;6130715;23;20413;-81
2022/05/07 11:23:11;;;;;;;19.35;12.32;;;;;;;20.96;46.29;102178.78;6130474;23;20036;-80
2022/05/07 11:25:45;;;;;;;20.08;13.15;;;;;;;21.77;47.19;102300.56;6130642;23;20052;-79
2022/05/07 11:28:16;;;;;;;24.27;13.38;;;;;;;20.89;46.94;102157.47;6157019;23;20435;-80
2022/05/07 11:31:12;;;;;;;19.60;12.55;;;;;;;21.37;47.23;102214.66;6156571;23;20009;-78
2022/05/07 11:33:39;;;;;;;16.90;12.15;;;;;;;20.79;48.48;102143.47;6066323;23;20007;-79
2022/05/07 11:36:06;;;;;;;20.58;14.00;;;;;;;21.24;48.09;102211.41;6066425;23;20046;-78
2022/05/07 11:38:34;;;;;;;20.85;13.50;;;;;;;22.10;47.81;102295.97;6066447;23;20018;-78
2022/05/07 11:41:14;;;;;;;19.88;12.93;;;;;;;22.04;45.60;102247.34;6066257;23;20071;-78
2022/05/07 11:47:06;;;;;;;19.63;12.00;;;;;;;22.50;46.53;102290.59;6066396;23;20015;-79
2022/05/07 11:49:33;;;;;;;21.45;12.65;;;;;;;22.27;44.74;102290.84;6064048;23;20038;-79
2022/05/07 11:52:17;;;;;;;18.55;11.40;;;;;;;21.85;44.85;102240.25;6066249;23;20342;-78
2022/05/07 11:54:49;;;;;;;17.25;11.50;;;;;;;21.48;45.17;102180.38;6066076;23;20011;-79
2022/05/07 11:57:32;;;;;;;16.48;11.40;;;;;;;21.77;45.86;102243.53;6066282;23;20434;-80
2022/05/07 12:00:19;;;;;;;18.20;10.82;;;;;;;21.22;46.69;102149.44;6066183;23;20011;-80
2022/05/07 12:03:04;;;;;;;20.75;12.32;;;;;;;21.87;47.13;102282.19;6066417;23;20147;-79
2022/05/07 12:05:52;;;;;;;16.00;11.68;;;;;;;21.80;47.71;102276.63;6079286;23;20022;-79
2022/05/07 12:08:19;;;;;;;16.95;11.32;;;;;;;21.78;47.14;102281.19;6094540;23;20013;-79
2022/05/07 12:10:49;;;;;;;16.05;11.55;;;;;;;21.78;46.93;102283.81;6142379;23;20036;-79
2022/05/07 12:13:18;;;;;;;16.40;11.15;;;;;;;21.83;47.48;102284.25;6153828;23;20084;-79
2022/05/07 12:18:47;;;;;;;16.38;10.30;;;;;;;20.82;46.60;102095.94;6154188;23;20025;-78
2022/05/07 12:21:16;;;;;;;17.00;10.70;;;;;;;21.05;47.30;102148.28;6155184;23;20125;-78
2022/05/07 12:32:13;;;;;;;13.93;9.60;;;;;;;21.80;48.72;102286.31;6156291;23;20028;-78
2022/05/07 12:34:39;;;;;;;14.70;9.00;;;;;;;21.48;48.17;102237.38;6154180;23;20084;-78
2022/05/07 12:37:11;;;;;;;12.48;8.68;;;;;;;21.51;48.19;102200.31;6154000;23;20009;-79